Aviation Digital Data Service (ADDS)

Output produced by TAFs form (1002 UTC 23 April 2017)
found at http://www.aviationweather.gov/adds/tafs/
 
METAR text: ZSAM 230900Z 10005MPS 060V130 9999 SCT046 22/14 Q1015 NOSIG
Conditions at: ZSAM (XIAMEN , CN) observed 0900 UTC 23 April 2017
Temperature: 22.0°C (72°F)
Dewpoint: 14.0°C (57°F) [RH = 60%]
Pressure (altimeter): 29.97 inches Hg (1015.0 mb)
Winds: from the E (100 degrees) at 12 MPH (10 knots; 5.2 m/s)
Visibility: 6 or more miles (10+ km)
Ceiling: at least 12,000 feet AGL
Clouds: scattered clouds at 4600 feet AGL
Weather: no significant weather observed at this time

Forecast for: ZSAM (XIAMEN , CN)
Text: TAF ZSAM 230310Z 2306/2406 08004G09MPS 6000 BKN030 TX26/2306Z TN17/2321Z
Forecast period: 0600 UTC 23 April 2017 to 0600 UTC 24 April 2017
Forecast type: FROM: standard forecast or significant change
Winds: from the E (80 degrees) at 9 MPH (8 knots; 4.2 m/s)
gusting to 20 MPH (17 knots; 8.8 m/s)
Visibility: 4 miles (6 km)
Ceiling: 3000 feet AGL
Clouds: broken clouds at 3000 feet AGL
Weather: no significant weather forecast for this period